sensor_id;sensor_type;location;lat;lon;timestamp;temperature;humidity
9383;DHT22;4731;49.708;10.816;2023-02-23T00:00:52;7.90;99.90
9383;DHT22;4731;49.708;10.816;2023-02-23T00:03:19;7.90;99.90
9383;DHT22;4731;49.708;10.816;2023-02-23T00:05:46;7.90;99.90
9383;DHT22;4731;49.708;10.816;2023-02-23T00:08:12;8.10;99.90
9383;DHT22;4731;49.708;10.816;2023-02-23T00:10:39;7.90;99.90
9383;DHT22;4731;49.708;10.816;2023-02-23T00:13:07;7.80;99.90
9383;DHT22;4731;49.708;10.816;2023-02-23T00:15:35;7.80;99.90
9383;DHT22;4731;49.708;10.816;2023-02-23T00:18:02;7.80;99.90
9383;DHT22;4731;49.708;10.816;2023-02-23T00:20:30;7.80;99.90
9383;DHT22;4731;49.708;10.816;2023-02-23T00:22:57;7.90;99.90
9383;DHT22;4731;49.708;10.816;2023-02-23T00:25:24;8.00;99.90
9383;DHT22;4731;49.708;10.816;2023-02-23T00:27:51;8.00;99.90
9383;DHT22;4731;49.708;10.816;2023-02-23T00:30:20;8.00;99.90
9383;DHT22;4731;49.708;10.816;2023-02-23T00:32:49;8.00;99.90
9383;DHT22;4731;49.708;10.816;2023-02-23T00:35:17;8.10;99.90
9383;DHT22;4731;49.708;10.816;2023-02-23T00:37:44;8.00;99.90
9383;DHT22;4731;49.708;10.816;2023-02-23T00:40:13;9.20;99.90
9383;DHT22;4731;49.708;10.816;2023-02-23T00:42:42;7.90;99.90
9383;DHT22;4731;49.708;10.816;2023-02-23T00:45:10;7.90;99.90
9383;DHT22;4731;49.708;10.816;2023-02-23T00:47:40;7.80;99.90
9383;DHT22;4731;49.708;10.816;2023-02-23T00:50:09;7.90;99.90
9383;DHT22;4731;49.708;10.816;2023-02-23T00:52:38;7.90;99.90
9383;DHT22;4731;49.708;10.816;2023-02-23T00:55:06;7.80;99.90
9383;DHT22;4731;49.708;10.816;2023-02-23T00:57:33;7.80;99.90
9383;DHT22;4731;49.708;10.816;2023-02-23T01:00:00;7.80;99.90
9383;DHT22;4731;49.708;10.816;2023-02-23T01:02:32;7.70;99.90
9383;DHT22;4731;49.708;10.816;2023-02-23T01:05:00;7.60;99.90
9383;DHT22;4731;49.708;10.816;2023-02-23T01:07:26;7.50;99.90
9383;DHT22;4731;49.708;10.816;2023-02-23T01:09:53;7.50;99.90
9383;DHT22;4731;49.708;10.816;2023-02-23T01:12:20;7.50;99.90
9383;DHT22;4731;49.708;10.816;2023-02-23T01:14:47;7.50;99.90
9383;DHT22;4731;49.708;10.816;2023-02-23T01:17:14;7.40;99.90
9383;DHT22;4731;49.708;10.816;2023-02-23T01:19:42;7.50;99.90
9383;DHT22;4731;49.708;10.816;2023-02-23T01:22:10;7.60;99.90
9383;DHT22;4731;49.708;10.816;2023-02-23T01:24:37;7.60;99.90
9383;DHT22;4731;49.708;10.816;2023-02-23T01:27:04;7.60;99.90
9383;DHT22;4731;49.708;10.816;2023-02-23T01:29:31;7.50;99.90
9383;DHT22;4731;49.708;10.816;2023-02-23T01:31:58;7.50;99.90
9383;DHT22;4731;49.708;10.816;2023-02-23T01:34:25;7.50;99.90
9383;DHT22;4731;49.708;10.816;2023-02-23T01:36:52;7.60;99.90
9383;DHT22;4731;49.708;10.816;2023-02-23T01:39:20;7.60;99.90
9383;DHT22;4731;49.708;10.816;2023-02-23T01:41:48;7.60;99.90
9383;DHT22;4731;49.708;10.816;2023-02-23T01:47:16;7.60;99.90
9383;DHT22;4731;49.708;10.816;2023-02-23T01:49:45;10.40;99.90
9383;DHT22;4731;49.708;10.816;2023-02-23T01:52:14;7.40;99.90
9383;DHT22;4731;49.708;10.816;2023-02-23T01:54:45;7.40;99.90
9383;DHT22;4731;49.708;10.816;2023-02-23T01:57:16;7.30;99.90
9383;DHT22;4731;49.708;10.816;2023-02-23T01:59:45;8.90;99.90
9383;DHT22;4731;49.708;10.816;2023-02-23T02:02:13;7.30;99.90
9383;DHT22;4731;49.708;10.816;2023-02-23T02:04:42;7.40;99.90
9383;DHT22;4731;49.708;10.816;2023-02-23T02:07:09;7.40;99.90
9383;DHT22;4731;49.708;10.816;2023-02-23T02:09:39;7.40;99.90
9383;DHT22;4731;49.708;10.816;2023-02-23T02:12:27;7.40;99.90
9383;DHT22;4731;49.708;10.816;2023-02-23T02:14:54;7.50;99.90
9383;DHT22;4731;49.708;10.816;2023-02-23T02:17:30;7.50;99.90
9383;DHT22;4731;49.708;10.816;2023-02-23T02:20:26;10.00;99.90
9383;DHT22;4731;49.708;10.816;2023-02-23T02:23:26;7.60;99.90
9383;DHT22;4731;49.708;10.816;2023-02-23T02:26:08;7.70;99.90
9383;DHT22;4731;49.708;10.816;2023-02-23T02:28:52;7.60;99.90
9383;DHT22;4731;49.708;10.816;2023-02-23T02:34:52;7.60;99.90
9383;DHT22;4731;49.708;10.816;2023-02-23T02:38:02;7.60;99.90
9383;DHT22;4731;49.708;10.816;2023-02-23T02:40:37;7.60;99.90
9383;DHT22;4731;49.708;10.816;2023-02-23T02:43:22;7.60;99.90
9383;DHT22;4731;49.708;10.816;2023-02-23T02:45:53;7.70;99.90
9383;DHT22;4731;49.708;10.816;2023-02-23T02:48:30;10.10;99.90
9383;DHT22;4731;49.708;10.816;2023-02-23T02:51:03;7.70;99.90
9383;DHT22;4731;49.708;10.816;2023-02-23T02:53:40;7.60;99.90
9383;DHT22;4731;49.708;10.816;2023-02-23T02:56:10;7.60;99.90
9383;DHT22;4731;49.708;10.816;2023-02-23T02:58:39;7.60;99.90
9383;DHT22;4731;49.708;10.816;2023-02-23T03:01:12;7.70;99.90
9383;DHT22;4731;49.708;10.816;2023-02-23T03:03:57;8.90;99.90
9383;DHT22;4731;49.708;10.816;2023-02-23T03:06:45;7.60;99.90
9383;DHT22;4731;49.708;10.816;2023-02-23T03:09:35;7.50;99.90
9383;DHT22;4731;49.708;10.816;2023-02-23T03:12:29;7.50;99.90
9383;DHT22;4731;49.708;10.816;2023-02-23T03:15:28;7.50;99.90
9383;DHT22;4731;49.708;10.816;2023-02-23T03:18:21;10.80;99.90
9383;DHT22;4731;49.708;10.816;2023-02-23T03:21:14;7.50;99.90
9383;DHT22;4731;49.708;10.816;2023-02-23T03:24:09;7.40;99.90
9383;DHT22;4731;49.708;10.816;2023-02-23T03:26:58;7.50;99.90
9383;DHT22;4731;49.708;10.816;2023-02-23T03:29:51;7.40;99.90
9383;DHT22;4731;49.708;10.816;2023-02-23T03:32:44;7.30;99.90
9383;DHT22;4731;49.708;10.816;2023-02-23T03:35:34;8.60;99.90
9383;DHT22;4731;49.708;10.816;2023-02-23T03:38:27;7.20;99.90
9383;DHT22;4731;49.708;10.816;2023-02-23T03:41:14;7.10;99.90
9383;DHT22;4731;49.708;10.816;2023-02-23T03:44:08;7.10;99.90
9383;DHT22;4731;49.708;10.816;2023-02-23T03:46:54;10.50;99.90
9383;DHT22;4731;49.708;10.816;2023-02-23T03:49:41;7.10;99.90
9383;DHT22;4731;49.708;10.816;2023-02-23T03:52:29;7.10;99.90
9383;DHT22;4731;49.708;10.816;2023-02-23T03:55:16;7.10;99.90
9383;DHT22;4731;49.708;10.816;2023-02-23T03:58:05;7.10;99.90
9383;DHT22;4731;49.708;10.816;2023-02-23T04:00:54;7.00;99.90
9383;DHT22;4731;49.708;10.816;2023-02-23T04:03:41;7.00;99.90
9383;DHT22;4731;49.708;10.816;2023-02-23T04:06:30;6.90;99.90
9383;DHT22;4731;49.708;10.816;2023-02-23T04:09:16;6.90;99.90
9383;DHT22;4731;49.708;10.816;2023-02-23T04:12:05;6.80;99.90
9383;DHT22;4731;49.708;10.816;2023-02-23T04:14:55;6.80;99.90
9383;DHT22;4731;49.708;10.816;2023-02-23T04:17:25;6.70;99.90
9383;DHT22;4731;49.708;10.816;2023-02-23T04:19:54;6.70;99.90
9383;DHT22;4731;49.708;10.816;2023-02-23T04:22:22;6.60;99.90
9383;DHT22;4731;49.708;10.816;2023-02-23T04:24:49;6.60;99.90
9383;DHT22;4731;49.708;10.816;2023-02-23T04:27:17;6.60;99.90
9383;DHT22;4731;49.708;10.816;2023-02-23T04:29:44;6.50;99.90
9383;DHT22;4731;49.708;10.816;2023-02-23T04:32:13;6.50;99.90
9383;DHT22;4731;49.708;10.816;2023-02-23T04:34:42;6.40;99.90
9383;DHT22;4731;49.708;10.816;2023-02-23T04:37:10;6.50;99.90
9383;DHT22;4731;49.708;10.816;2023-02-23T04:39:37;6.50;99.90
9383;DHT22;4731;49.708;10.816;2023-02-23T04:42:04;6.50;99.90
9383;DHT22;4731;49.708;10.816;2023-02-23T04:44:31;6.70;99.90
9383;DHT22;4731;49.708;10.816;2023-02-23T04:46:57;6.60;99.90
9383;DHT22;4731;49.708;10.816;2023-02-23T04:49:25;6.90;99.90
9383;DHT22;4731;49.708;10.816;2023-02-23T04:51:53;6.50;99.90
9383;DHT22;4731;49.708;10.816;2023-02-23T04:54:20;6.40;99.90
9383;DHT22;4731;49.708;10.816;2023-02-23T04:56:46;6.40;99.90
9383;DHT22;4731;49.708;10.816;2023-02-23T04:59:13;6.40;99.90
9383;DHT22;4731;49.708;10.816;2023-02-23T05:01:40;6.40;99.90
9383;DHT22;4731;49.708;10.816;2023-02-23T05:04:07;6.40;99.90
9383;DHT22;4731;49.708;10.816;2023-02-23T05:06:34;6.40;99.90
9383;DHT22;4731;49.708;10.816;2023-02-23T05:09:03;8.40;99.90
9383;DHT22;4731;49.708;10.816;2023-02-23T05:11:31;6.50;99.90
9383;DHT22;4731;49.708;10.816;2023-02-23T05:13:58;9.00;99.90
9383;DHT22;4731;49.708;10.816;2023-02-23T05:16:25;7.40;99.90
9383;DHT22;4731;49.708;10.816;2023-02-23T05:18:52;7.10;99.90
9383;DHT22;4731;49.708;10.816;2023-02-23T05:21:19;6.60;99.90
9383;DHT22;4731;49.708;10.816;2023-02-23T05:23:46;6.60;99.90
9383;DHT22;4731;49.708;10.816;2023-02-23T05:26:14;6.60;99.90
9383;DHT22;4731;49.708;10.816;2023-02-23T05:28:41;6.60;99.90
9383;DHT22;4731;49.708;10.816;2023-02-23T05:31:11;6.60;99.90
9383;DHT22;4731;49.708;10.816;2023-02-23T05:33:38;6.70;99.90
9383;DHT22;4731;49.708;10.816;2023-02-23T05:36:08;6.70;99.90
9383;DHT22;4731;49.708;10.816;2023-02-23T05:38:36;6.70;99.90
9383;DHT22;4731;49.708;10.816;2023-02-23T05:41:06;6.80;99.90
9383;DHT22;4731;49.708;10.816;2023-02-23T05:43:35;6.90;99.90
9383;DHT22;4731;49.708;10.816;2023-02-23T05:46:05;6.90;99.90
9383;DHT22;4731;49.708;10.816;2023-02-23T05:48:33;7.10;99.90
9383;DHT22;4731;49.708;10.816;2023-02-23T05:51:01;6.90;99.90
9383;DHT22;4731;49.708;10.816;2023-02-23T05:53:27;6.90;99.90
9383;DHT22;4731;49.708;10.816;2023-02-23T05:55:54;6.90;99.90
9383;DHT22;4731;49.708;10.816;2023-02-23T05:58:21;6.90;99.90
9383;DHT22;4731;49.708;10.816;2023-02-23T06:00:50;6.90;99.90
9383;DHT22;4731;49.708;10.816;2023-02-23T06:03:17;7.00;99.90
9383;DHT22;4731;49.708;10.816;2023-02-23T06:05:48;6.90;99.90
9383;DHT22;4731;49.708;10.816;2023-02-23T06:08:15;7.00;99.90
9383;DHT22;4731;49.708;10.816;2023-02-23T06:10:42;7.20;99.90
9383;DHT22;4731;49.708;10.816;2023-02-23T06:13:09;7.00;99.90
9383;DHT22;4731;49.708;10.816;2023-02-23T06:15:36;7.00;99.90
9383;DHT22;4731;49.708;10.816;2023-02-23T06:18:04;9.60;99.90
9383;DHT22;4731;49.708;10.816;2023-02-23T06:20:31;6.70;99.90
9383;DHT22;4731;49.708;10.816;2023-02-23T06:22:58;6.70;99.90
9383;DHT22;4731;49.708;10.816;2023-02-23T06:25:25;6.80;99.90
9383;DHT22;4731;49.708;10.816;2023-02-23T06:27:52;6.90;99.90
9383;DHT22;4731;49.708;10.816;2023-02-23T06:30:19;6.90;99.90
9383;DHT22;4731;49.708;10.816;2023-02-23T06:32:46;7.00;99.90
9383;DHT22;4731;49.708;10.816;2023-02-23T06:35:14;7.00;99.90
9383;DHT22;4731;49.708;10.816;2023-02-23T06:37:41;7.00;99.90
9383;DHT22;4731;49.708;10.816;2023-02-23T06:40:09;7.90;99.90
9383;DHT22;4731;49.708;10.816;2023-02-23T06:42:36;7.10;99.90
9383;DHT22;4731;49.708;10.816;2023-02-23T06:45:04;7.10;99.90
9383;DHT22;4731;49.708;10.816;2023-02-23T06:47:31;7.00;99.90
9383;DHT22;4731;49.708;10.816;2023-02-23T06:49:58;7.00;99.90
9383;DHT22;4731;49.708;10.816;2023-02-23T06:52:27;7.10;99.90
9383;DHT22;4731;49.708;10.816;2023-02-23T06:54:54;7.20;99.90
9383;DHT22;4731;49.708;10.816;2023-02-23T06:57:21;7.30;99.90
9383;DHT22;4731;49.708;10.816;2023-02-23T06:59:48;7.40;99.90
9383;DHT22;4731;49.708;10.816;2023-02-23T07:02:15;7.50;99.90
9383;DHT22;4731;49.708;10.816;2023-02-23T07:04:42;7.50;99.90
9383;DHT22;4731;49.708;10.816;2023-02-23T07:07:09;7.40;99.90
9383;DHT22;4731;49.708;10.816;2023-02-23T07:09:39;7.40;99.90
9383;DHT22;4731;49.708;10.816;2023-02-23T07:12:07;7.50;99.90
9383;DHT22;4731;49.708;10.816;2023-02-23T07:14:34;7.60;99.90
9383;DHT22;4731;49.708;10.816;2023-02-23T07:17:02;7.60;99.90
9383;DHT22;4731;49.708;10.816;2023-02-23T07:19:29;7.70;99.90
9383;DHT22;4731;49.708;10.816;2023-02-23T07:21:56;7.70;99.90
9383;DHT22;4731;49.708;10.816;2023-02-23T07:24:22;7.80;99.90
9383;DHT22;4731;49.708;10.816;2023-02-23T07:26:51;9.70;99.90
9383;DHT22;4731;49.708;10.816;2023-02-23T07:29:17;7.80;99.90
9383;DHT22;4731;49.708;10.816;2023-02-23T07:31:44;7.80;99.90
9383;DHT22;4731;49.708;10.816;2023-02-23T07:34:14;7.80;99.90
9383;DHT22;4731;49.708;10.816;2023-02-23T07:36:41;7.70;99.90
9383;DHT22;4731;49.708;10.816;2023-02-23T07:39:07;7.80;99.90
9383;DHT22;4731;49.708;10.816;2023-02-23T07:41:34;7.90;99.90
9383;DHT22;4731;49.708;10.816;2023-02-23T07:44:03;8.00;99.90
9383;DHT22;4731;49.708;10.816;2023-02-23T07:46:31;8.10;99.90
9383;DHT22;4731;49.708;10.816;2023-02-23T07:48:57;8.20;99.90
9383;DHT22;4731;49.708;10.816;2023-02-23T07:51:25;8.20;99.90
9383;DHT22;4731;49.708;10.816;2023-02-23T07:53:53;10.70;99.90
9383;DHT22;4731;49.708;10.816;2023-02-23T07:56:20;9.20;99.90
9383;DHT22;4731;49.708;10.816;2023-02-23T07:58:48;8.50;99.90
9383;DHT22;4731;49.708;10.816;2023-02-23T08:01:16;8.30;99.90
9383;DHT22;4731;49.708;10.816;2023-02-23T08:03:43;8.20;99.90
9383;DHT22;4731;49.708;10.816;2023-02-23T08:06:14;8.30;99.90
9383;DHT22;4731;49.708;10.816;2023-02-23T08:08:41;8.20;99.90
9383;DHT22;4731;49.708;10.816;2023-02-23T08:11:09;9.50;99.90
9383;DHT22;4731;49.708;10.816;2023-02-23T08:13:36;8.10;99.90
9383;DHT22;4731;49.708;10.816;2023-02-23T08:16:03;8.00;99.90
9383;DHT22;4731;49.708;10.816;2023-02-23T08:18:31;8.10;99.90
9383;DHT22;4731;49.708;10.816;2023-02-23T08:20:58;8.00;99.90
9383;DHT22;4731;49.708;10.816;2023-02-23T08:23:25;8.10;99.90
9383;DHT22;4731;49.708;10.816;2023-02-23T08:25:54;8.30;99.90
9383;DHT22;4731;49.708;10.816;2023-02-23T08:28:21;8.30;99.90
9383;DHT22;4731;49.708;10.816;2023-02-23T08:30:49;8.30;99.90
9383;DHT22;4731;49.708;10.816;2023-02-23T08:33:16;8.20;99.90
9383;DHT22;4731;49.708;10.816;2023-02-23T08:35:44;8.90;99.90
9383;DHT22;4731;49.708;10.816;2023-02-23T08:38:11;9.30;99.90
9383;DHT22;4731;49.708;10.816;2023-02-23T08:40:38;9.50;99.90
9383;DHT22;4731;49.708;10.816;2023-02-23T08:43:05;8.40;99.90
9383;DHT22;4731;49.708;10.816;2023-02-23T08:45:32;8.30;99.90
9383;DHT22;4731;49.708;10.816;2023-02-23T08:47:59;8.30;99.90
9383;DHT22;4731;49.708;10.816;2023-02-23T08:50:25;8.50;99.90
9383;DHT22;4731;49.708;10.816;2023-02-23T08:52:54;8.60;99.90
9383;DHT22;4731;49.708;10.816;2023-02-23T08:55:21;8.70;99.90
9383;DHT22;4731;49.708;10.816;2023-02-23T08:57:48;8.70;99.90
9383;DHT22;4731;49.708;10.816;2023-02-23T09:00:16;8.50;99.90
9383;DHT22;4731;49.708;10.816;2023-02-23T09:02:44;8.70;99.90
9383;DHT22;4731;49.708;10.816;2023-02-23T09:05:12;8.80;99.90
9383;DHT22;4731;49.708;10.816;2023-02-23T09:07:42;9.80;99.90
9383;DHT22;4731;49.708;10.816;2023-02-23T09:10:12;9.90;99.90
9383;DHT22;4731;49.708;10.816;2023-02-23T09:12:39;8.80;99.90
9383;DHT22;4731;49.708;10.816;2023-02-23T09:15:07;8.80;99.90
9383;DHT22;4731;49.708;10.816;2023-02-23T09:17:34;8.80;99.90
9383;DHT22;4731;49.708;10.816;2023-02-23T09:20:03;8.80;99.90
9383;DHT22;4731;49.708;10.816;2023-02-23T09:22:30;8.60;99.90
9383;DHT22;4731;49.708;10.816;2023-02-23T09:24:58;8.80;99.90
9383;DHT22;4731;49.708;10.816;2023-02-23T09:27:26;10.10;99.90
9383;DHT22;4731;49.708;10.816;2023-02-23T09:29:53;8.80;99.90
9383;DHT22;4731;49.708;10.816;2023-02-23T09:32:20;8.70;99.90
9383;DHT22;4731;49.708;10.816;2023-02-23T09:34:47;8.70;99.90
9383;DHT22;4731;49.708;10.816;2023-02-23T09:37:14;8.70;99.90
9383;DHT22;4731;49.708;10.816;2023-02-23T09:39:41;9.20;99.90
9383;DHT22;4731;49.708;10.816;2023-02-23T09:42:19;8.90;99.90
9383;DHT22;4731;49.708;10.816;2023-02-23T09:45:01;8.90;99.90
9383;DHT22;4731;49.708;10.816;2023-02-23T09:47:33;8.80;99.90
9383;DHT22;4731;49.708;10.816;2023-02-23T09:50:12;8.90;99.90
9383;DHT22;4731;49.708;10.816;2023-02-23T09:52:44;9.00;99.90
9383;DHT22;4731;49.708;10.816;2023-02-23T09:55:13;9.30;99.90
9383;DHT22;4731;49.708;10.816;2023-02-23T09:57:43;9.30;99.90
9383;DHT22;4731;49.708;10.816;2023-02-23T10:00:17;10.90;99.90
9383;DHT22;4731;49.708;10.816;2023-02-23T10:03:13;9.40;99.90
9383;DHT22;4731;49.708;10.816;2023-02-23T10:05:46;9.50;99.90
9383;DHT22;4731;49.708;10.816;2023-02-23T10:08:22;9.60;99.90
9383;DHT22;4731;49.708;10.816;2023-02-23T10:10:58;10.60;99.90
9383;DHT22;4731;49.708;10.816;2023-02-23T10:13:38;9.80;99.90
9383;DHT22;4731;49.708;10.816;2023-02-23T10:16:15;10.00;99.90
9383;DHT22;4731;49.708;10.816;2023-02-23T10:18:48;9.90;99.90
9383;DHT22;4731;49.708;10.816;2023-02-23T10:21:20;11.20;99.90
9383;DHT22;4731;49.708;10.816;2023-02-23T10:23:52;10.10;99.90
9383;DHT22;4731;49.708;10.816;2023-02-23T10:26:22;10.20;99.90
9383;DHT22;4731;49.708;10.816;2023-02-23T10:28:53;10.20;99.90
9383;DHT22;4731;49.708;10.816;2023-02-23T10:31:27;11.90;99.90
9383;DHT22;4731;49.708;10.816;2023-02-23T10:33:58;10.40;99.90
9383;DHT22;4731;49.708;10.816;2023-02-23T10:36:34;13.00;99.90
9383;DHT22;4731;49.708;10.816;2023-02-23T10:39:04;11.80;99.90
9383;DHT22;4731;49.708;10.816;2023-02-23T10:41:31;10.90;99.90
9383;DHT22;4731;49.708;10.816;2023-02-23T10:43:58;11.00;99.90
9383;DHT22;4731;49.708;10.816;2023-02-23T10:46:33;12.10;99.90
9383;DHT22;4731;49.708;10.816;2023-02-23T10:49:02;13.70;99.90
9383;DHT22;4731;49.708;10.816;2023-02-23T10:51:32;11.00;99.90
9383;DHT22;4731;49.708;10.816;2023-02-23T10:54:37;11.00;99.90
9383;DHT22;4731;49.708;10.816;2023-02-23T10:57:06;11.00;99.90
9383;DHT22;4731;49.708;10.816;2023-02-23T10:59:33;10.90;99.90
9383;DHT22;4731;49.708;10.816;2023-02-23T11:02:21;12.70;99.90
9383;DHT22;4731;49.708;10.816;2023-02-23T11:04:53;13.50;99.90
9383;DHT22;4731;49.708;10.816;2023-02-23T11:07:22;10.90;99.90
9383;DHT22;4731;49.708;10.816;2023-02-23T11:09:50;10.90;99.90
9383;DHT22;4731;49.708;10.816;2023-02-23T11:12:19;10.90;99.90
9383;DHT22;4731;49.708;10.816;2023-02-23T11:14:47;11.00;99.90
9383;DHT22;4731;49.708;10.816;2023-02-23T11:17:27;10.90;99.90
9383;DHT22;4731;49.708;10.816;2023-02-23T11:19:59;10.90;99.90
9383;DHT22;4731;49.708;10.816;2023-02-23T11:22:30;10.90;99.90
9383;DHT22;4731;49.708;10.816;2023-02-23T11:25:00;11.50;99.90
9383;DHT22;4731;49.708;10.816;2023-02-23T11:27:30;12.10;99.90
9383;DHT22;4731;49.708;10.816;2023-02-23T11:29:58;12.80;99.90
9383;DHT22;4731;49.708;10.816;2023-02-23T11:32:33;11.20;99.90
9383;DHT22;4731;49.708;10.816;2023-02-23T11:35:16;11.30;99.90
9383;DHT22;4731;49.708;10.816;2023-02-23T11:37:52;11.50;99.90
9383;DHT22;4731;49.708;10.816;2023-02-23T11:40:20;12.90;99.90
9383;DHT22;4731;49.708;10.816;2023-02-23T11:42:53;12.10;99.90
9383;DHT22;4731;49.708;10.816;2023-02-23T11:45:22;11.60;99.90
9383;DHT22;4731;49.708;10.816;2023-02-23T11:47:55;11.30;99.90
9383;DHT22;4731;49.708;10.816;2023-02-23T11:50:26;11.60;99.90
9383;DHT22;4731;49.708;10.816;2023-02-23T11:53:00;11.70;99.90
9383;DHT22;4731;49.708;10.816;2023-02-23T11:55:30;11.40;99.90
9383;DHT22;4731;49.708;10.816;2023-02-23T11:58:08;13.40;99.90
9383;DHT22;4731;49.708;10.816;2023-02-23T12:00:36;11.70;99.90
9383;DHT22;4731;49.708;10.816;2023-02-23T12:03:04;11.20;99.90
9383;DHT22;4731;49.708;10.816;2023-02-23T12:05:32;11.10;99.90
9383;DHT22;4731;49.708;10.816;2023-02-23T12:08:01;10.90;99.90
9383;DHT22;4731;49.708;10.816;2023-02-23T12:10:36;10.70;99.90
9383;DHT22;4731;49.708;10.816;2023-02-23T12:13:10;10.70;99.90
9383;DHT22;4731;49.708;10.816;2023-02-23T12:15:42;10.80;99.90
9383;DHT22;4731;49.708;10.816;2023-02-23T12:18:21;10.80;99.90
9383;DHT22;4731;49.708;10.816;2023-02-23T12:20:52;11.00;99.90
9383;DHT22;4731;49.708;10.816;2023-02-23T12:23:23;10.50;99.90
9383;DHT22;4731;49.708;10.816;2023-02-23T12:25:55;10.30;99.90
9383;DHT22;4731;49.708;10.816;2023-02-23T12:28:28;10.20;99.90
9383;DHT22;4731;49.708;10.816;2023-02-23T12:31:01;10.20;99.90
9383;DHT22;4731;49.708;10.816;2023-02-23T12:33:37;10.20;99.90
9383;DHT22;4731;49.708;10.816;2023-02-23T12:36:15;13.30;99.90
9383;DHT22;4731;49.708;10.816;2023-02-23T12:38:49;10.50;99.90
9383;DHT22;4731;49.708;10.816;2023-02-23T12:41:22;10.60;99.90
9383;DHT22;4731;49.708;10.816;2023-02-23T12:43:55;10.50;99.90
9383;DHT22;4731;49.708;10.816;2023-02-23T12:46:28;10.60;99.90
9383;DHT22;4731;49.708;10.816;2023-02-23T12:49:03;10.50;99.90
9383;DHT22;4731;49.708;10.816;2023-02-23T12:51:34;10.60;99.90
9383;DHT22;4731;49.708;10.816;2023-02-23T12:54:03;10.70;99.90
9383;DHT22;4731;49.708;10.816;2023-02-23T12:56:48;10.60;99.90
9383;DHT22;4731;49.708;10.816;2023-02-23T12:59:39;10.40;99.90
9383;DHT22;4731;49.708;10.816;2023-02-23T13:02:12;10.40;99.90
9383;DHT22;4731;49.708;10.816;2023-02-23T13:05:00;10.50;99.90
9383;DHT22;4731;49.708;10.816;2023-02-23T13:07:40;10.60;99.90
9383;DHT22;4731;49.708;10.816;2023-02-23T13:10:19;10.90;99.90
9383;DHT22;4731;49.708;10.816;2023-02-23T13:12:55;11.00;99.90
9383;DHT22;4731;49.708;10.816;2023-02-23T13:15:37;11.10;99.90
9383;DHT22;4731;49.708;10.816;2023-02-23T13:18:12;11.30;99.90
9383;DHT22;4731;49.708;10.816;2023-02-23T13:20:45;11.80;99.90
9383;DHT22;4731;49.708;10.816;2023-02-23T13:23:20;11.80;99.90
9383;DHT22;4731;49.708;10.816;2023-02-23T13:25:53;11.80;99.90
9383;DHT22;4731;49.708;10.816;2023-02-23T13:28:34;11.80;99.90
9383;DHT22;4731;49.708;10.816;2023-02-23T13:31:02;11.80;99.90
9383;DHT22;4731;49.708;10.816;2023-02-23T13:33:30;11.50;99.90
9383;DHT22;4731;49.708;10.816;2023-02-23T13:36:03;11.60;99.90
9383;DHT22;4731;49.708;10.816;2023-02-23T13:38:38;11.60;99.90
9383;DHT22;4731;49.708;10.816;2023-02-23T13:41:18;11.50;99.90
9383;DHT22;4731;49.708;10.816;2023-02-23T13:43:55;11.30;99.90
9383;DHT22;4731;49.708;10.816;2023-02-23T13:46:31;11.10;99.90
9383;DHT22;4731;49.708;10.816;2023-02-23T13:49:09;12.20;99.90
9383;DHT22;4731;49.708;10.816;2023-02-23T13:51:47;12.30;99.90
9383;DHT22;4731;49.708;10.816;2023-02-23T13:54:22;11.30;99.90
9383;DHT22;4731;49.708;10.816;2023-02-23T13:56:54;11.40;99.90
9383;DHT22;4731;49.708;10.816;2023-02-23T13:59:25;11.40;99.90
9383;DHT22;4731;49.708;10.816;2023-02-23T14:01:54;12.00;99.90
9383;DHT22;4731;49.708;10.816;2023-02-23T14:04:23;11.50;99.90
9383;DHT22;4731;49.708;10.816;2023-02-23T14:07:00;11.60;99.90
9383;DHT22;4731;49.708;10.816;2023-02-23T14:09:30;11.80;99.90
9383;DHT22;4731;49.708;10.816;2023-02-23T14:12:13;15.60;99.90
9383;DHT22;4731;49.708;10.816;2023-02-23T14:14:45;11.80;99.90
9383;DHT22;4731;49.708;10.816;2023-02-23T14:17:55;11.70;99.90
9383;DHT22;4731;49.708;10.816;2023-02-23T14:20:39;11.80;99.90
9383;DHT22;4731;49.708;10.816;2023-02-23T14:23:28;11.80;99.90
9383;DHT22;4731;49.708;10.816;2023-02-23T14:26:17;12.10;99.90
9383;DHT22;4731;49.708;10.816;2023-02-23T14:29:28;12.00;99.90
9383;DHT22;4731;49.708;10.816;2023-02-23T14:32:00;12.20;99.90
9383;DHT22;4731;49.708;10.816;2023-02-23T14:34:49;13.20;99.90
9383;DHT22;4731;49.708;10.816;2023-02-23T14:37:28;12.50;99.90
9383;DHT22;4731;49.708;10.816;2023-02-23T14:40:05;12.60;99.90
9383;DHT22;4731;49.708;10.816;2023-02-23T14:42:37;12.50;99.90
9383;DHT22;4731;49.708;10.816;2023-02-23T14:45:16;12.40;99.90
9383;DHT22;4731;49.708;10.816;2023-02-23T14:47:45;12.30;99.90
9383;DHT22;4731;49.708;10.816;2023-02-23T14:50:17;12.80;99.90
9383;DHT22;4731;49.708;10.816;2023-02-23T14:52:46;12.10;99.90
9383;DHT22;4731;49.708;10.816;2023-02-23T14:55:20;12.00;99.90
9383;DHT22;4731;49.708;10.816;2023-02-23T14:57:49;11.90;99.90
9383;DHT22;4731;49.708;10.816;2023-02-23T15:00:20;11.80;99.90
9383;DHT22;4731;49.708;10.816;2023-02-23T15:02:55;11.70;99.90
9383;DHT22;4731;49.708;10.816;2023-02-23T15:05:25;11.60;99.90
9383;DHT22;4731;49.708;10.816;2023-02-23T15:07:55;11.50;99.90
9383;DHT22;4731;49.708;10.816;2023-02-23T15:10:28;11.50;99.90
9383;DHT22;4731;49.708;10.816;2023-02-23T15:12:57;11.50;99.90
9383;DHT22;4731;49.708;10.816;2023-02-23T15:15:26;11.40;99.90
9383;DHT22;4731;49.708;10.816;2023-02-23T15:18:01;11.60;99.90
9383;DHT22;4731;49.708;10.816;2023-02-23T15:20:43;11.60;99.90
9383;DHT22;4731;49.708;10.816;2023-02-23T15:23:15;11.60;99.90
9383;DHT22;4731;49.708;10.816;2023-02-23T15:25:53;11.50;99.90
9383;DHT22;4731;49.708;10.816;2023-02-23T15:28:25;11.60;99.90
9383;DHT22;4731;49.708;10.816;2023-02-23T15:31:02;11.60;99.90
9383;DHT22;4731;49.708;10.816;2023-02-23T15:33:35;11.70;99.90
9383;DHT22;4731;49.708;10.816;2023-02-23T15:36:06;11.50;99.90
9383;DHT22;4731;49.708;10.816;2023-02-23T15:38:40;11.50;99.90
9383;DHT22;4731;49.708;10.816;2023-02-23T15:41:18;11.50;99.90
9383;DHT22;4731;49.708;10.816;2023-02-23T15:43:50;11.40;99.90
9383;DHT22;4731;49.708;10.816;2023-02-23T15:46:22;11.40;99.90
9383;DHT22;4731;49.708;10.816;2023-02-23T15:48:54;11.20;99.90
9383;DHT22;4731;49.708;10.816;2023-02-23T15:51:35;11.20;99.90
9383;DHT22;4731;49.708;10.816;2023-02-23T15:54:11;11.10;99.90
9383;DHT22;4731;49.708;10.816;2023-02-23T15:56:50;11.10;99.90
9383;DHT22;4731;49.708;10.816;2023-02-23T15:59:26;11.10;99.90
9383;DHT22;4731;49.708;10.816;2023-02-23T16:02:01;11.00;99.90
9383;DHT22;4731;49.708;10.816;2023-02-23T16:04:30;11.00;99.90
9383;DHT22;4731;49.708;10.816;2023-02-23T16:07:15;11.00;99.90
9383;DHT22;4731;49.708;10.816;2023-02-23T16:09:52;10.90;99.90
9383;DHT22;4731;49.708;10.816;2023-02-23T16:12:23;10.90;99.90
9383;DHT22;4731;49.708;10.816;2023-02-23T16:14:55;10.90;99.90
9383;DHT22;4731;49.708;10.816;2023-02-23T16:17:29;10.90;99.90
9383;DHT22;4731;49.708;10.816;2023-02-23T16:20:09;10.90;99.90
9383;DHT22;4731;49.708;10.816;2023-02-23T16:22:39;10.90;99.90
9383;DHT22;4731;49.708;10.816;2023-02-23T16:25:13;10.90;99.90
9383;DHT22;4731;49.708;10.816;2023-02-23T16:27:43;11.00;99.90
9383;DHT22;4731;49.708;10.816;2023-02-23T16:30:17;11.00;99.90
9383;DHT22;4731;49.708;10.816;2023-02-23T16:32:48;10.90;99.90
9383;DHT22;4731;49.708;10.816;2023-02-23T16:35:17;10.90;99.90